sensor_id;sensor_type;location;lat;lon;timestamp;pressure;altitude;pressure_sealevel;temperature;humidity
65157;BME280;52745;49.794;18.258;2022-11-06T00:01:40;-16130.31;;;7.22;95.57
65157;BME280;52745;49.794;18.258;2022-11-06T00:04:07;-16129.09;;;7.18;95.70
65157;BME280;52745;49.794;18.258;2022-11-06T00:06:33;-16128.41;;;7.15;95.81
65157;BME280;52745;49.794;18.258;2022-11-06T00:09:19;-16128.69;;;7.16;95.70
65157;BME280;52745;49.794;18.258;2022-11-06T00:11:47;-16125.81;;;7.05;95.97
65157;BME280;52745;49.794;18.258;2022-11-06T00:14:15;-16124.31;;;7.00;96.53
65157;BME280;52745;49.794;18.258;2022-11-06T00:16:43;-16122.66;;;6.94;96.84
65157;BME280;52745;49.794;18.258;2022-11-06T00:19:10;-16124.84;;;7.02;97.29
65157;BME280;52745;49.794;18.258;2022-11-06T00:21:36;-16124.56;;;7.01;97.04
65157;BME280;52745;49.794;18.258;2022-11-06T00:24:05;-16125.66;;;7.05;96.76
65157;BME280;52745;49.794;18.258;2022-11-06T00:26:32;-16124.72;;;7.01;96.89
65157;BME280;52745;49.794;18.258;2022-11-06T00:28:59;-16124.56;;;7.01;96.96
65157;BME280;52745;49.794;18.258;2022-11-06T00:31:28;-16125.53;;;7.04;96.59
65157;BME280;52745;49.794;18.258;2022-11-06T00:33:57;-16126.50;;;7.08;96.40
65157;BME280;52745;49.794;18.258;2022-11-06T00:36:25;-16123.75;;;6.98;96.83
65157;BME280;52745;49.794;18.258;2022-11-06T00:38:53;-16119.94;;;6.83;97.27
65157;BME280;52745;49.794;18.258;2022-11-06T00:41:20;-16121.56;;;6.90;97.14
65157;BME280;52745;49.794;18.258;2022-11-06T00:43:49;-16122.94;;;6.95;97.14
65157;BME280;52745;49.794;18.258;2022-11-06T00:46:17;-16122.81;;;6.94;96.72
65157;BME280;52745;49.794;18.258;2022-11-06T00:48:44;-16123.91;;;6.98;96.82
65157;BME280;52745;49.794;18.258;2022-11-06T00:51:12;-16123.47;;;6.97;97.00
65157;BME280;52745;49.794;18.258;2022-11-06T00:53:39;-16124.84;;;7.02;96.72
65157;BME280;52745;49.794;18.258;2022-11-06T00:56:09;-16127.03;;;7.10;96.44
65157;BME280;52745;49.794;18.258;2022-11-06T00:58:37;-16126.75;;;7.09;96.24
65157;BME280;52745;49.794;18.258;2022-11-06T01:01:26;-16126.09;;;7.07;96.46
65157;BME280;52745;49.794;18.258;2022-11-06T01:03:55;-16126.22;;;7.07;96.53
65157;BME280;52745;49.794;18.258;2022-11-06T01:06:23;-16127.19;;;7.11;96.23
65157;BME280;52745;49.794;18.258;2022-11-06T01:08:51;-16128.94;;;7.17;96.02
65157;BME280;52745;49.794;18.258;2022-11-06T01:11:23;-16129.91;;;7.21;95.74
65157;BME280;52745;49.794;18.258;2022-11-06T01:13:55;-16129.50;;;7.19;95.59
65157;BME280;52745;49.794;18.258;2022-11-06T01:16:22;-16126.22;;;7.07;95.94
65157;BME280;52745;49.794;18.258;2022-11-06T01:18:50;-16124.56;;;7.01;96.07
65157;BME280;52745;49.794;18.258;2022-11-06T01:21:20;-16123.47;;;6.97;96.51
65157;BME280;52745;49.794;18.258;2022-11-06T01:23:51;-16123.47;;;6.97;96.79
65157;BME280;52745;49.794;18.258;2022-11-06T01:26:19;-16126.75;;;7.09;96.11
65157;BME280;52745;49.794;18.258;2022-11-06T01:28:45;-16127.84;;;7.13;96.21
65157;BME280;52745;49.794;18.258;2022-11-06T01:31:15;-16129.91;;;7.21;95.71
65157;BME280;52745;49.794;18.258;2022-11-06T01:33:42;-16129.78;;;7.20;95.25
65157;BME280;52745;49.794;18.258;2022-11-06T01:36:11;-16131.28;;;7.26;95.02
65157;BME280;52745;49.794;18.258;2022-11-06T01:38:42;-16129.50;;;7.19;94.79
65157;BME280;52745;49.794;18.258;2022-11-06T01:41:13;-16125.25;;;7.03;95.93
65157;BME280;52745;49.794;18.258;2022-11-06T01:43:49;-16119.38;;;6.81;96.84
65157;BME280;52745;49.794;18.258;2022-11-06T01:46:17;-16117.47;;;6.74;97.46
65157;BME280;52745;49.794;18.258;2022-11-06T01:49:00;-16116.25;;;6.70;97.72
65157;BME280;52745;49.794;18.258;2022-11-06T01:51:31;-16115.16;;;6.66;97.69
65157;BME280;52745;49.794;18.258;2022-11-06T01:54:02;-16113.66;;;6.60;97.91
65157;BME280;52745;49.794;18.258;2022-11-06T01:56:30;-16111.72;;;6.53;98.26
65157;BME280;52745;49.794;18.258;2022-11-06T01:58:56;-16111.47;;;6.52;98.44
65157;BME280;52745;49.794;18.258;2022-11-06T02:01:23;-16111.47;;;6.52;98.36
65157;BME280;52745;49.794;18.258;2022-11-06T02:04:23;-16113.09;;;6.58;98.30
65157;BME280;52745;49.794;18.258;2022-11-06T02:06:50;-16111.72;;;6.53;98.38
65157;BME280;52745;49.794;18.258;2022-11-06T02:09:18;-16110.66;;;6.49;98.74
65157;BME280;52745;49.794;18.258;2022-11-06T02:11:50;-16109.56;;;6.45;98.70
65157;BME280;52745;49.794;18.258;2022-11-06T02:14:50;-16109.13;;;6.43;98.73
65157;BME280;52745;49.794;18.258;2022-11-06T02:18:13;-16108.31;;;6.40;98.59
65157;BME280;52745;49.794;18.258;2022-11-06T02:20:39;-16106.53;;;6.33;98.89
65157;BME280;52745;49.794;18.258;2022-11-06T02:28:39;-16102.16;;;6.17;99.81
65157;BME280;52745;49.794;18.258;2022-11-06T02:31:13;-16101.91;;;6.16;99.88
65157;BME280;52745;49.794;18.258;2022-11-06T02:33:49;-16102.72;;;6.19;99.70
65157;BME280;52745;49.794;18.258;2022-11-06T02:36:21;-16104.09;;;6.24;99.10
65157;BME280;52745;49.794;18.258;2022-11-06T02:38:55;-16106.00;;;6.31;98.56
65157;BME280;52745;49.794;18.258;2022-11-06T02:41:28;-16105.19;;;6.28;98.52
65157;BME280;52745;49.794;18.258;2022-11-06T02:43:56;-16105.84;;;6.31;98.16
65157;BME280;52745;49.794;18.258;2022-11-06T02:46:30;-16104.91;;;6.27;98.15
65157;BME280;52745;49.794;18.258;2022-11-06T02:49:05;-16105.03;;;6.28;97.86
65157;BME280;52745;49.794;18.258;2022-11-06T02:51:37;-16100.66;;;6.11;98.02
65157;BME280;52745;49.794;18.258;2022-11-06T02:54:06;-16096.28;;;5.95;99.32
65157;BME280;52745;49.794;18.258;2022-11-06T02:56:37;-16093.69;;;5.85;99.72
65157;BME280;52745;49.794;18.258;2022-11-06T02:59:09;-16092.59;;;5.81;99.79
65157;BME280;52745;49.794;18.258;2022-11-06T03:01:45;-16089.72;;;5.70;100.00
65157;BME280;52745;49.794;18.258;2022-11-06T03:04:26;-16086.59;;;5.58;100.00
65157;BME280;52745;49.794;18.258;2022-11-06T03:09:58;-16086.72;;;5.59;100.00
65157;BME280;52745;49.794;18.258;2022-11-06T03:12:29;-16087.13;;;5.60;100.00
65157;BME280;52745;49.794;18.258;2022-11-06T03:17:53;-16087.94;;;5.64;99.99
65157;BME280;52745;49.794;18.258;2022-11-06T03:20:38;-16087.41;;;5.62;100.00
65157;BME280;52745;49.794;18.258;2022-11-06T03:25:43;-16086.59;;;5.58;99.87
65157;BME280;52745;49.794;18.258;2022-11-06T03:30:58;-16087.41;;;5.62;99.60
65157;BME280;52745;49.794;18.258;2022-11-06T03:36:13;-16082.34;;;5.43;100.00
65157;BME280;52745;49.794;18.258;2022-11-06T03:38:49;-16078.09;;;5.27;100.00
65157;BME280;52745;49.794;18.258;2022-11-06T03:41:28;-16077.56;;;5.25;100.00
65157;BME280;52745;49.794;18.258;2022-11-06T03:43:58;-16076.75;;;5.22;100.00
65157;BME280;52745;49.794;18.258;2022-11-06T03:46:27;-16077.56;;;5.25;100.00
65157;BME280;52745;49.794;18.258;2022-11-06T03:48:58;-16079.19;;;5.31;100.00
65157;BME280;52745;49.794;18.258;2022-11-06T03:51:38;-16080.69;;;5.36;100.00
65157;BME280;52745;49.794;18.258;2022-11-06T03:54:12;-16082.75;;;5.44;100.00
65157;BME280;52745;49.794;18.258;2022-11-06T03:56:47;-16085.63;;;5.55;100.00
65157;BME280;52745;49.794;18.258;2022-11-06T03:59:16;-16087.41;;;5.62;100.00
65157;BME280;52745;49.794;18.258;2022-11-06T04:01:49;-16088.22;;;5.65;100.00
65157;BME280;52745;49.794;18.258;2022-11-06T04:04:23;-16088.91;;;5.67;99.55
65157;BME280;52745;49.794;18.258;2022-11-06T04:07:02;-16087.69;;;5.63;99.09
65157;BME280;52745;49.794;18.258;2022-11-06T04:09:32;-16087.25;;;5.61;99.11
65157;BME280;52745;49.794;18.258;2022-11-06T04:12:20;-16087.25;;;5.61;99.06
65157;BME280;52745;49.794;18.258;2022-11-06T04:15:10;-16088.22;;;5.65;98.99
65157;BME280;52745;49.794;18.258;2022-11-06T04:17:38;-16089.03;;;5.68;98.92
65157;BME280;52745;49.794;18.258;2022-11-06T04:20:09;-16089.88;;;5.71;99.15
65157;BME280;52745;49.794;18.258;2022-11-06T04:33:56;-16099.03;;;6.05;97.94
65157;BME280;52745;49.794;18.258;2022-11-06T04:36:53;-16102.72;;;6.19;97.43
65157;BME280;52745;49.794;18.258;2022-11-06T04:39:28;-16104.63;;;6.26;97.20
65157;BME280;52745;49.794;18.258;2022-11-06T04:42:14;-16104.34;;;6.25;96.88
65157;BME280;52745;49.794;18.258;2022-11-06T04:44:44;-16102.16;;;6.17;97.07
65157;BME280;52745;49.794;18.258;2022-11-06T04:47:16;-16102.31;;;6.17;97.78
65157;BME280;52745;49.794;18.258;2022-11-06T04:49:43;-16103.25;;;6.21;97.88
65157;BME280;52745;49.794;18.258;2022-11-06T04:52:19;-16102.59;;;6.18;97.59
65157;BME280;52745;49.794;18.258;2022-11-06T04:54:47;-16103.25;;;6.21;97.74
65157;BME280;52745;49.794;18.258;2022-11-06T04:57:13;-16105.72;;;6.30;97.09
65157;BME280;52745;49.794;18.258;2022-11-06T04:59:40;-16105.44;;;6.29;96.88
65157;BME280;52745;49.794;18.258;2022-11-06T05:02:06;-16105.19;;;6.28;96.60
65157;BME280;52745;49.794;18.258;2022-11-06T05:04:33;-16103.13;;;6.20;97.22
65157;BME280;52745;49.794;18.258;2022-11-06T05:06:59;-16103.25;;;6.21;97.29
65157;BME280;52745;49.794;18.258;2022-11-06T05:09:26;-16103.69;;;6.22;97.39
65157;BME280;52745;49.794;18.258;2022-11-06T05:11:52;-16102.84;;;6.19;97.98
65157;BME280;52745;49.794;18.258;2022-11-06T05:14:19;-16102.72;;;6.19;98.82
65157;BME280;52745;49.794;18.258;2022-11-06T05:16:45;-16103.00;;;6.20;98.79
65157;BME280;52745;49.794;18.258;2022-11-06T05:19:12;-16104.09;;;6.24;99.10
65157;BME280;52745;49.794;18.258;2022-11-06T05:21:38;-16104.09;;;6.24;99.36
65157;BME280;52745;49.794;18.258;2022-11-06T05:24:24;-16103.81;;;6.23;99.67
65157;BME280;52745;49.794;18.258;2022-11-06T05:26:50;-16103.69;;;6.22;99.48
65157;BME280;52745;49.794;18.258;2022-11-06T05:29:17;-16105.31;;;6.29;99.24
65157;BME280;52745;49.794;18.258;2022-11-06T05:31:43;-16103.41;;;6.21;99.33
65157;BME280;52745;49.794;18.258;2022-11-06T05:34:10;-16106.28;;;6.32;99.47
65157;BME280;52745;49.794;18.258;2022-11-06T05:36:36;-16105.03;;;6.28;99.11
65157;BME280;52745;49.794;18.258;2022-11-06T05:39:03;-16102.44;;;6.18;99.45
65157;BME280;52745;49.794;18.258;2022-11-06T05:41:29;-16103.81;;;6.23;98.84
65157;BME280;52745;49.794;18.258;2022-11-06T05:43:56;-16104.22;;;6.25;98.91
65157;BME280;52745;49.794;18.258;2022-11-06T05:46:22;-16105.72;;;6.30;99.12
65157;BME280;52745;49.794;18.258;2022-11-06T05:48:49;-16107.63;;;6.37;98.67
65157;BME280;52745;49.794;18.258;2022-11-06T05:51:15;-16106.41;;;6.33;98.67
65157;BME280;52745;49.794;18.258;2022-11-06T05:53:42;-16109.28;;;6.43;98.41
65157;BME280;52745;49.794;18.258;2022-11-06T05:56:08;-16108.03;;;6.39;98.29
65157;BME280;52745;49.794;18.258;2022-11-06T05:58:35;-16107.38;;;6.36;98.40
65157;BME280;52745;49.794;18.258;2022-11-06T06:01:01;-16106.94;;;6.35;98.71
65157;BME280;52745;49.794;18.258;2022-11-06T06:03:28;-16107.50;;;6.37;98.48
65157;BME280;52745;49.794;18.258;2022-11-06T06:05:54;-16105.19;;;6.28;98.58
65157;BME280;52745;49.794;18.258;2022-11-06T06:08:21;-16105.19;;;6.28;98.76
65157;BME280;52745;49.794;18.258;2022-11-06T06:10:47;-16105.72;;;6.30;98.13
65157;BME280;52745;49.794;18.258;2022-11-06T06:13:15;-16108.47;;;6.40;98.15
65157;BME280;52745;49.794;18.258;2022-11-06T06:15:42;-16107.09;;;6.35;98.50
65157;BME280;52745;49.794;18.258;2022-11-06T06:18:09;-16106.81;;;6.34;98.33
65157;BME280;52745;49.794;18.258;2022-11-06T06:20:36;-16106.81;;;6.34;98.08
65157;BME280;52745;49.794;18.258;2022-11-06T06:23:03;-16103.81;;;6.23;98.10
65157;BME280;52745;49.794;18.258;2022-11-06T06:25:30;-16102.16;;;6.17;98.30
65157;BME280;52745;49.794;18.258;2022-11-06T06:27:56;-16101.63;;;6.15;98.42
65157;BME280;52745;49.794;18.258;2022-11-06T06:30:24;-16101.22;;;6.13;98.49
65157;BME280;52745;49.794;18.258;2022-11-06T06:32:51;-16102.72;;;6.19;98.24
65157;BME280;52745;49.794;18.258;2022-11-06T06:35:17;-16100.81;;;6.12;98.01
65157;BME280;52745;49.794;18.258;2022-11-06T06:37:53;-16096.56;;;5.96;99.18
65157;BME280;52745;49.794;18.258;2022-11-06T06:40:20;-16094.78;;;5.89;99.51
65157;BME280;52745;49.794;18.258;2022-11-06T06:42:46;-16095.59;;;5.92;99.77
65157;BME280;52745;49.794;18.258;2022-11-06T06:45:13;-16092.88;;;5.82;99.68
65157;BME280;52745;49.794;18.258;2022-11-06T06:47:40;-16092.19;;;5.79;100.00
65157;BME280;52745;49.794;18.258;2022-11-06T06:50:06;-16090.28;;;5.72;100.00
65157;BME280;52745;49.794;18.258;2022-11-06T06:52:33;-16086.31;;;5.57;100.00
65157;BME280;52745;49.794;18.258;2022-11-06T06:54:59;-16086.31;;;5.57;100.00
65157;BME280;52745;49.794;18.258;2022-11-06T06:57:26;-16084.94;;;5.52;100.00
65157;BME280;52745;49.794;18.258;2022-11-06T06:59:52;-16083.31;;;5.46;100.00
65157;BME280;52745;49.794;18.258;2022-11-06T07:02:19;-16084.41;;;5.50;100.00
65157;BME280;52745;49.794;18.258;2022-11-06T07:04:45;-16084.94;;;5.52;100.00
65157;BME280;52745;49.794;18.258;2022-11-06T07:07:12;-16079.47;;;5.32;100.00
65157;BME280;52745;49.794;18.258;2022-11-06T07:09:39;-16079.19;;;5.31;100.00
65157;BME280;52745;49.794;18.258;2022-11-06T07:12:05;-16079.47;;;5.32;100.00
65157;BME280;52745;49.794;18.258;2022-11-06T07:14:32;-16080.69;;;5.36;100.00
65157;BME280;52745;49.794;18.258;2022-11-06T07:16:58;-16081.66;;;5.40;100.00
65157;BME280;52745;49.794;18.258;2022-11-06T07:19:25;-16086.72;;;5.59;100.00
65157;BME280;52745;49.794;18.258;2022-11-06T07:21:52;-16088.09;;;5.64;100.00
65157;BME280;52745;49.794;18.258;2022-11-06T07:24:18;-16092.31;;;5.80;100.00
65157;BME280;52745;49.794;18.258;2022-11-06T07:26:46;-16095.06;;;5.90;100.00
65157;BME280;52745;49.794;18.258;2022-11-06T07:29:12;-16100.13;;;6.09;100.00
65157;BME280;52745;49.794;18.258;2022-11-06T07:31:39;-16104.22;;;6.25;100.00
65157;BME280;52745;49.794;18.258;2022-11-06T07:34:06;-16107.78;;;6.38;98.84
65157;BME280;52745;49.794;18.258;2022-11-06T07:36:34;-16103.25;;;6.21;98.76
65157;BME280;52745;49.794;18.258;2022-11-06T07:39:01;-16104.22;;;6.25;99.23
65157;BME280;52745;49.794;18.258;2022-11-06T07:41:28;-16107.38;;;6.36;99.30
65157;BME280;52745;49.794;18.258;2022-11-06T07:43:56;-16110.38;;;6.48;98.72
65157;BME280;52745;49.794;18.258;2022-11-06T07:46:25;-16112.00;;;6.54;97.71
65157;BME280;52745;49.794;18.258;2022-11-06T07:48:52;-16116.25;;;6.70;97.38
65157;BME280;52745;49.794;18.258;2022-11-06T07:51:19;-16112.28;;;6.55;96.72
65157;BME280;52745;49.794;18.258;2022-11-06T07:53:46;-16106.53;;;6.33;97.87
65157;BME280;52745;49.794;18.258;2022-11-06T07:56:13;-16109.41;;;6.44;97.55
65157;BME280;52745;49.794;18.258;2022-11-06T07:58:40;-16114.34;;;6.62;96.96
65157;BME280;52745;49.794;18.258;2022-11-06T08:01:12;-16119.94;;;6.83;95.82
65157;BME280;52745;49.794;18.258;2022-11-06T08:03:39;-16121.16;;;6.88;95.88
65157;BME280;52745;49.794;18.258;2022-11-06T08:06:06;-16115.97;;;6.69;95.74
65157;BME280;52745;49.794;18.258;2022-11-06T08:08:32;-16115.00;;;6.65;97.25
65157;BME280;52745;49.794;18.258;2022-11-06T08:11:03;-16117.19;;;6.73;98.44
65157;BME280;52745;49.794;18.258;2022-11-06T08:13:31;-16112.16;;;6.54;98.45
65157;BME280;52745;49.794;18.258;2022-11-06T08:16:04;-16113.09;;;6.58;97.40
65157;BME280;52745;49.794;18.258;2022-11-06T08:18:31;-16121.16;;;6.88;96.17
65157;BME280;52745;49.794;18.258;2022-11-06T08:20:58;-16125.13;;;7.03;95.34
65157;BME280;52745;49.794;18.258;2022-11-06T08:23:27;-16116.50;;;6.71;96.42
65157;BME280;52745;49.794;18.258;2022-11-06T08:25:58;-16109.97;;;6.46;98.25
65157;BME280;52745;49.794;18.258;2022-11-06T08:28:25;-16112.69;;;6.56;98.57
65157;BME280;52745;49.794;18.258;2022-11-06T08:30:52;-16113.91;;;6.61;97.08
65157;BME280;52745;49.794;18.258;2022-11-06T08:33:20;-16119.38;;;6.81;97.34
65157;BME280;52745;49.794;18.258;2022-11-06T08:35:47;-16120.34;;;6.85;96.71
65157;BME280;52745;49.794;18.258;2022-11-06T08:38:14;-16118.56;;;6.78;96.16
65157;BME280;52745;49.794;18.258;2022-11-06T08:40:41;-16118.84;;;6.79;96.73
65157;BME280;52745;49.794;18.258;2022-11-06T08:43:09;-16125.81;;;7.05;96.38
65157;BME280;52745;49.794;18.258;2022-11-06T08:45:40;-16128.94;;;7.17;94.66
65157;BME280;52745;49.794;18.258;2022-11-06T08:48:07;-16132.63;;;7.31;94.10
65157;BME280;52745;49.794;18.258;2022-11-06T08:50:36;-16130.88;;;7.24;93.55
65157;BME280;52745;49.794;18.258;2022-11-06T08:53:03;-16125.41;;;7.04;94.64
65157;BME280;52745;49.794;18.258;2022-11-06T08:55:32;-16121.03;;;6.88;95.41
65157;BME280;52745;49.794;18.258;2022-11-06T08:57:59;-16114.75;;;6.64;95.96
65157;BME280;52745;49.794;18.258;2022-11-06T09:00:26;-16119.94;;;6.83;95.92
65157;BME280;52745;49.794;18.258;2022-11-06T09:03:00;-16119.13;;;6.80;95.50
65157;BME280;52745;49.794;18.258;2022-11-06T09:05:27;-16116.38;;;6.70;96.03
65157;BME280;52745;49.794;18.258;2022-11-06T09:07:55;-16116.50;;;6.71;97.28
65157;BME280;52745;49.794;18.258;2022-11-06T09:10:23;-16124.31;;;7.00;96.66
65157;BME280;52745;49.794;18.258;2022-11-06T09:12:49;-16135.78;;;7.43;94.17
65157;BME280;52745;49.794;18.258;2022-11-06T09:15:16;-16149.03;;;7.93;91.69
65157;BME280;52745;49.794;18.258;2022-11-06T09:17:43;-16159.41;;;8.32;89.26
65157;BME280;52745;49.794;18.258;2022-11-06T09:20:11;-16164.72;;;8.52;88.00
65157;BME280;52745;49.794;18.258;2022-11-06T09:22:38;-16164.59;;;8.51;87.16
65157;BME280;52745;49.794;18.258;2022-11-06T09:25:05;-16169.38;;;8.69;87.25
65157;BME280;52745;49.794;18.258;2022-11-06T09:27:32;-16170.72;;;8.74;85.74
65157;BME280;52745;49.794;18.258;2022-11-06T09:30:06;-16157.06;;;8.23;87.15
65157;BME280;52745;49.794;18.258;2022-11-06T09:32:33;-16152.97;;;8.07;89.51
65157;BME280;52745;49.794;18.258;2022-11-06T09:34:59;-16157.63;;;8.25;88.19
65157;BME280;52745;49.794;18.258;2022-11-06T09:37:26;-16162.53;;;8.43;87.47
65157;BME280;52745;49.794;18.258;2022-11-06T09:39:52;-16163.63;;;8.47;87.65
65157;BME280;52745;49.794;18.258;2022-11-06T09:45:16;-16150.66;;;7.99;89.04
65157;BME280;52745;49.794;18.258;2022-11-06T09:47:56;-16142.59;;;7.69;90.27
65157;BME280;52745;49.794;18.258;2022-11-06T09:50:28;-16138.22;;;7.52;91.44
65157;BME280;52745;49.794;18.258;2022-11-06T09:53:02;-16140.41;;;7.60;91.39
65157;BME280;52745;49.794;18.258;2022-11-06T09:55:37;-16149.56;;;7.95;90.67
65157;BME280;52745;49.794;18.258;2022-11-06T09:58:11;-16146.44;;;7.83;90.76
65157;BME280;52745;49.794;18.258;2022-11-06T10:00:40;-16151.06;;;8.00;90.04
65157;BME280;52745;49.794;18.258;2022-11-06T10:03:56;-16157.75;;;8.25;89.93
65157;BME280;52745;49.794;18.258;2022-11-06T10:06:03;-16168.97;;;8.67;87.76
65157;BME280;52745;49.794;18.258;2022-11-06T10:08:29;-16171.00;;;8.75;86.28
65157;BME280;52745;49.794;18.258;2022-11-06T10:11:06;-16161.03;;;8.38;86.88
65157;BME280;52745;49.794;18.258;2022-11-06T10:16:55;-16153.25;;;8.08;88.96
65157;BME280;52745;49.794;18.258;2022-11-06T10:19:48;-16155.44;;;8.17;89.68
65157;BME280;52745;49.794;18.258;2022-11-06T10:22:17;-16155.72;;;8.18;88.87
65157;BME280;52745;49.794;18.258;2022-11-06T10:28:00;-16163.91;;;8.48;88.34
65157;BME280;52745;49.794;18.258;2022-11-06T10:30:40;-16173.59;;;8.85;87.16
65157;BME280;52745;49.794;18.258;2022-11-06T10:33:19;-16168.69;;;8.66;86.46
65157;BME280;52745;49.794;18.258;2022-11-06T10:35:49;-16172.66;;;8.81;86.56
65157;BME280;52745;49.794;18.258;2022-11-06T10:38:28;-16172.09;;;8.79;86.59
65157;BME280;52745;49.794;18.258;2022-11-06T10:40:55;-16169.63;;;8.70;86.20
65157;BME280;52745;49.794;18.258;2022-11-06T10:43:52;-16176.06;;;8.94;86.04
65157;BME280;52745;49.794;18.258;2022-11-06T10:46:42;-16171.28;;;8.76;85.55
65157;BME280;52745;49.794;18.258;2022-11-06T11:00:25;-16172.38;;;8.80;86.67
65157;BME280;52745;49.794;18.258;2022-11-06T11:02:55;-16174.16;;;8.87;86.66
65157;BME280;52745;49.794;18.258;2022-11-06T11:05:25;-16170.72;;;8.74;86.36
65157;BME280;52745;49.794;18.258;2022-11-06T11:07:52;-16174.28;;;8.87;87.17
65157;BME280;52745;49.794;18.258;2022-11-06T11:10:29;-16174.97;;;8.90;86.30
65157;BME280;52745;49.794;18.258;2022-11-06T11:12:57;-16174.56;;;8.88;85.89
65157;BME280;52745;49.794;18.258;2022-11-06T11:15:27;-16176.47;;;8.96;85.04
65157;BME280;52745;49.794;18.258;2022-11-06T11:18:08;-16171.81;;;8.78;85.90
65157;BME280;52745;49.794;18.258;2022-11-06T11:20:42;-16174.56;;;8.88;86.19
65157;BME280;52745;49.794;18.258;2022-11-06T11:23:29;-16175.50;;;8.92;84.99
65157;BME280;52745;49.794;18.258;2022-11-06T11:25:57;-16168.81;;;8.67;86.20
65157;BME280;52745;49.794;18.258;2022-11-06T11:28:39;-16165.00;;;8.53;87.51
65157;BME280;52745;49.794;18.258;2022-11-06T11:31:10;-16163.78;;;8.48;87.67
65157;BME280;52745;49.794;18.258;2022-11-06T11:33:38;-16168.41;;;8.65;87.90
65157;BME280;52745;49.794;18.258;2022-11-06T11:36:07;-16171.81;;;8.78;85.85
65157;BME280;52745;49.794;18.258;2022-11-06T11:38:37;-16177.69;;;9.00;86.67
65157;BME280;52745;49.794;18.258;2022-11-06T11:41:07;-16182.47;;;9.18;85.11
65157;BME280;52745;49.794;18.258;2022-11-06T11:43:34;-16189.28;;;9.44;82.81
65157;BME280;52745;49.794;18.258;2022-11-06T11:48:55;-16184.38;;;9.25;83.43
65157;BME280;52745;49.794;18.258;2022-11-06T11:54:04;-16184.78;;;9.27;82.76
65157;BME280;52745;49.794;18.258;2022-11-06T11:56:31;-16195.97;;;9.69;82.64
65157;BME280;52745;49.794;18.258;2022-11-06T11:59:00;-16204.28;;;10.00;82.34
65157;BME280;52745;49.794;18.258;2022-11-06T12:01:37;-16207.16;;;10.11;79.41
65157;BME280;52745;49.794;18.258;2022-11-06T12:09:17;-16246.56;;;11.59;73.45
65157;BME280;52745;49.794;18.258;2022-11-06T12:11:45;-16249.16;;;11.69;72.20
65157;BME280;52745;49.794;18.258;2022-11-06T12:16:47;-16236.75;;;11.22;74.80
65157;BME280;52745;49.794;18.258;2022-11-06T12:19:17;-16234.97;;;11.15;74.21
65157;BME280;52745;49.794;18.258;2022-11-06T12:21:49;-16230.19;;;10.97;74.30
65157;BME280;52745;49.794;18.258;2022-11-06T12:24:22;-16241.91;;;11.42;75.36
65157;BME280;52745;49.794;18.258;2022-11-06T12:27:14;-16224.22;;;10.75;74.99
65157;BME280;52745;49.794;18.258;2022-11-06T12:30:01;-16227.34;;;10.87;74.95
65157;BME280;52745;49.794;18.258;2022-11-06T12:32:54;-16214.53;;;10.39;75.82
65157;BME280;52745;49.794;18.258;2022-11-06T12:35:29;-16215.47;;;10.42;76.63
65157;BME280;52745;49.794;18.258;2022-11-06T12:38:23;-16209.34;;;10.19;79.33
65157;BME280;52745;49.794;18.258;2022-11-06T12:41:02;-16204.97;;;10.03;78.31
65157;BME280;52745;49.794;18.258;2022-11-06T12:43:43;-16204.03;;;9.99;79.32
65157;BME280;52745;49.794;18.258;2022-11-06T12:52:17;-16195.28;;;9.66;81.13
65157;BME280;52745;49.794;18.258;2022-11-06T12:55:09;-16186.00;;;9.31;82.21
65157;BME280;52745;49.794;18.258;2022-11-06T13:14:19;-16188.59;;;9.41;82.69
65157;BME280;52745;49.794;18.258;2022-11-06T13:17:08;-16189.28;;;9.44;82.56
65157;BME280;52745;49.794;18.258;2022-11-06T13:19:47;-16191.47;;;9.52;82.08
65157;BME280;52745;49.794;18.258;2022-11-06T13:25:37;-16205.53;;;10.05;79.52
65157;BME280;52745;49.794;18.258;2022-11-06T13:28:25;-16209.22;;;10.19;79.13
65157;BME280;52745;49.794;18.258;2022-11-06T13:30:55;-16205.78;;;10.06;79.43
65157;BME280;52745;49.794;18.258;2022-11-06T13:33:25;-16204.28;;;10.00;79.62
65157;BME280;52745;49.794;18.258;2022-11-06T13:35:53;-16205.25;;;10.04;78.84
65157;BME280;52745;49.794;18.258;2022-11-06T13:38:34;-16200.75;;;9.87;79.39
65157;BME280;52745;49.794;18.258;2022-11-06T13:41:10;-16197.19;;;9.73;80.52
65157;BME280;52745;49.794;18.258;2022-11-06T13:43:42;-16198.16;;;9.77;80.19
65157;BME280;52745;49.794;18.258;2022-11-06T13:46:26;-16200.19;;;9.85;79.89
65157;BME280;52745;49.794;18.258;2022-11-06T13:51:57;-16196.25;;;9.70;81.56
65157;BME280;52745;49.794;18.258;2022-11-06T13:54:40;-16193.09;;;9.58;80.93
65157;BME280;52745;49.794;18.258;2022-11-06T14:00:21;-16185.75;;;9.30;83.18
65157;BME280;52745;49.794;18.258;2022-11-06T14:08:33;-16176.47;;;8.96;84.91
65157;BME280;52745;49.794;18.258;2022-11-06T14:11:06;-16173.19;;;8.83;84.85
65157;BME280;52745;49.794;18.258;2022-11-06T14:13:37;-16169.09;;;8.68;85.51
65157;BME280;52745;49.794;18.258;2022-11-06T14:16:23;-16167.03;;;8.60;86.13
65157;BME280;52745;49.794;18.258;2022-11-06T14:26:40;-16173.88;;;8.86;85.30
65157;BME280;52745;49.794;18.258;2022-11-06T14:34:39;-16169.91;;;8.71;85.82
65157;BME280;52745;49.794;18.258;2022-11-06T14:42:42;-16169.63;;;8.70;86.64
65157;BME280;52745;49.794;18.258;2022-11-06T14:45:16;-16169.38;;;8.69;86.65
65157;BME280;52745;49.794;18.258;2022-11-06T14:52:46;-16170.72;;;8.74;86.12
65157;BME280;52745;49.794;18.258;2022-11-06T14:55:25;-16168.69;;;8.66;86.59
65157;BME280;52745;49.794;18.258;2022-11-06T14:57:53;-16170.72;;;8.74;86.27
65157;BME280;52745;49.794;18.258;2022-11-06T15:19:00;-16161.84;;;8.41;87.53
65157;BME280;52745;49.794;18.258;2022-11-06T15:21:54;-16159.53;;;8.32;88.07
65157;BME280;52745;49.794;18.258;2022-11-06T15:24:26;-16157.91;;;8.26;89.02
65157;BME280;52745;49.794;18.258;2022-11-06T15:26:57;-16155.16;;;8.16;89.34
65157;BME280;52745;49.794;18.258;2022-11-06T15:29:27;-16153.66;;;8.10;90.07
65157;BME280;52745;49.794;18.258;2022-11-06T15:31:59;-16151.47;;;8.02;90.76
65157;BME280;52745;49.794;18.258;2022-11-06T15:34:36;-16151.63;;;8.02;90.53